createdAt,value
2019-04-29T00:04:09.753Z,42.73
2019-04-29T00:09:18.233Z,43.73
2019-04-29T00:14:21.898Z,43.37
2019-04-29T00:19:27.231Z,43.03
2019-04-29T00:24:31.002Z,43.73
2019-04-29T00:29:34.719Z,43.63
2019-04-29T00:34:38.531Z,43.27
2019-04-29T00:40:00.074Z,42.90
2019-04-29T00:45:04.962Z,42.97
2019-04-29T00:50:10.296Z,43.30
2019-04-29T00:55:15.814Z,43.43
2019-04-29T01:00:21.820Z,43.33
2019-04-29T01:05:25.614Z,43.13
2019-04-29T01:10:29.276Z,44.48
2019-04-29T01:15:33.305Z,43.93
2019-04-29T01:20:37.158Z,43.67
2019-04-29T01:25:42.536Z,43.93
2019-04-29T01:30:54.789Z,44.37
2019-04-29T01:36:16.611Z,43.90
2019-04-29T01:41:28.026Z,44.13
2019-04-29T01:46:32.176Z,44.73
2019-04-29T01:51:35.803Z,44.80
2019-04-29T01:56:39.446Z,44.60
2019-04-29T02:01:43.191Z,44.50
2019-04-29T02:06:46.895Z,44.77
2019-04-29T02:11:50.823Z,44.10
2019-04-29T02:16:54.399Z,44.50
2019-04-29T02:22:08.631Z,44.60
2019-04-29T02:27:12.266Z,44.20
2019-04-29T02:32:15.946Z,43.70
2019-04-29T02:37:21.228Z,44.17
2019-04-29T02:42:42.471Z,44.30
2019-04-29T02:47:46.100Z,44.30
2019-04-29T02:52:49.676Z,43.57
2019-04-29T02:57:54.944Z,43.57
2019-04-29T03:03:02.959Z,43.83
2019-04-29T03:08:06.677Z,43.40
2019-04-29T03:13:10.791Z,43.30
2019-04-29T03:18:14.565Z,42.93
2019-04-29T03:23:22.704Z,43.57
2019-04-29T03:28:26.286Z,43.43
2019-04-29T03:33:29.866Z,43.87
2019-04-29T03:38:33.557Z,43.43
2019-04-29T03:43:37.523Z,43.60
2019-04-29T03:48:41.149Z,43.53
2019-04-29T03:53:44.889Z,43.90
2019-04-29T03:58:48.852Z,43.87
2019-04-29T04:03:54.118Z,42.97
2019-04-29T04:09:06.288Z,43.03
2019-04-29T04:14:04.976Z,43.02
2019-04-29T04:19:09.633Z,43.33
2019-04-29T04:24:13.215Z,43.53
2019-04-29T04:29:16.787Z,43.27
2019-04-29T04:34:20.380Z,42.70
2019-04-29T04:39:25.078Z,43.67
2019-04-29T04:44:46.613Z,42.17
2019-04-29T04:49:50.180Z,42.57
2019-04-29T04:54:55.396Z,42.77
2019-04-29T04:59:59.077Z,42.60
2019-04-29T05:05:02.707Z,42.30
2019-04-29T05:10:07.533Z,42.17
2019-04-29T05:15:11.610Z,42.30
2019-04-29T05:20:15.655Z,42.40
2019-04-29T05:25:19.367Z,42.50
2019-04-29T05:30:23.196Z,42.10
2019-04-29T05:35:40.088Z,42.27
2019-04-29T05:40:53.054Z,42.63
2019-04-29T05:46:01.412Z,42.13
2019-04-29T05:51:27.268Z,42.77
2019-04-29T05:56:28.494Z,42.40
2019-04-29T06:01:32.144Z,41.80
2019-04-29T06:06:35.915Z,42.07
2019-04-29T06:11:39.612Z,42.30
2019-04-29T06:16:43.329Z,41.97
2019-04-29T06:21:47.037Z,42.17
2019-04-29T06:26:50.873Z,41.83
2019-04-29T06:31:54.501Z,41.77
2019-04-29T06:36:58.073Z,41.43
2019-04-29T06:42:01.840Z,41.40
2019-04-29T06:47:05.627Z,42.47
2019-04-29T06:52:09.291Z,42.17
2019-04-29T06:57:12.879Z,41.63
2019-04-29T07:02:16.535Z,41.37
2019-04-29T07:07:20.287Z,41.60
2019-04-29T07:12:23.862Z,41.77
2019-04-29T07:17:27.467Z,41.30
2019-04-29T07:22:31.306Z,41.53
2019-04-29T07:27:42.790Z,42.17
2019-04-29T07:32:41.988Z,41.92
2019-04-29T07:37:45.608Z,41.53
2019-04-29T07:42:49.316Z,42.30
2019-04-29T07:47:56.676Z,42.13
2019-04-29T07:53:00.064Z,41.87
2019-04-29T07:58:03.730Z,43.20
2019-04-29T08:03:08.189Z,42.60
2019-04-29T08:08:11.895Z,42.40
2019-04-29T08:13:16.326Z,42.83
2019-04-29T08:18:19.897Z,42.77
2019-04-29T08:23:23.559Z,42.13
2019-04-29T08:28:27.186Z,41.53
2019-04-29T08:33:30.864Z,41.67
2019-04-29T08:38:35.748Z,41.43
2019-04-29T08:43:52.475Z,42.30
2019-04-29T08:48:55.248Z,42.33
2019-04-29T08:53:58.952Z,41.60
2019-04-29T08:59:02.616Z,41.60
2019-04-29T09:04:06.335Z,41.97
2019-04-29T09:09:27.876Z,41.53
2019-04-29T09:14:15.203Z,42.03
2019-04-29T09:19:18.797Z,41.63
2019-04-29T09:24:22.568Z,42.07
2019-04-29T09:29:36.365Z,42.10
2019-04-29T09:34:40.056Z,42.13
2019-04-29T09:39:45.292Z,41.90
2019-04-29T09:45:02.602Z,42.33
2019-04-29T09:50:07.120Z,42.08
2019-04-29T09:55:10.934Z,42.23
2019-04-29T10:00:17.484Z,42.53
2019-04-29T10:05:37.820Z,42.00
2019-04-29T10:10:41.397Z,41.48
2019-04-29T10:15:46.746Z,41.87
2019-04-29T10:20:54.732Z,42.50
2019-04-29T10:25:58.395Z,42.53
2019-04-29T10:31:03.614Z,41.63
2019-04-29T10:36:08.242Z,42.40
2019-04-29T10:41:21.013Z,41.85
2019-04-29T10:46:32.239Z,42.00
2019-04-29T10:51:36.056Z,42.10
2019-04-29T10:56:41.069Z,42.33
2019-04-29T11:02:09.421Z,42.17
2019-04-29T11:07:26.971Z,42.13
2019-04-29T11:12:31.186Z,42.17
2019-04-29T11:17:35.260Z,42.03
2019-04-29T11:22:44.639Z,42.63
2019-04-29T11:27:49.946Z,42.03
2019-04-29T11:32:55.327Z,41.97
2019-04-29T11:37:59.973Z,42.27
2019-04-29T11:43:04.688Z,42.13
2019-04-29T11:48:08.416Z,42.37
2019-04-29T11:53:13.992Z,42.47
2019-04-29T11:58:31.426Z,41.73
2019-04-29T12:08:56.464Z,41.60
2019-04-29T12:14:13.846Z,42.37
2019-04-29T12:19:22.617Z,42.40
2019-04-29T12:24:26.361Z,42.10
2019-04-29T12:29:30.011Z,42.13
2019-04-29T12:34:35.392Z,42.70
2019-04-29T12:39:59.629Z,43.23
2019-04-29T12:45:20.032Z,43.33
2019-04-29T12:50:24.228Z,43.02
2019-04-29T12:55:49.078Z,42.70
2019-04-29T13:00:55.852Z,42.58
2019-04-29T13:05:58.513Z,42.87
2019-04-29T13:11:02.241Z,42.83
2019-04-29T13:16:20.011Z,42.80
2019-04-29T13:21:22.608Z,42.25
2019-04-29T13:26:28.324Z,42.23
2019-04-29T13:31:38.519Z,42.57
2019-04-29T13:36:37.211Z,42.17
2019-04-29T13:41:56.296Z,42.63
2019-04-29T13:47:00.080Z,43.10
2019-04-29T13:52:18.596Z,43.10
2019-04-29T13:57:23.691Z,43.77
2019-04-29T14:02:33.394Z,43.70
2019-04-29T14:07:34.270Z,43.17
2019-04-29T14:13:08.046Z,42.67
2019-04-29T14:17:43.278Z,42.97
2019-04-29T14:22:47.030Z,43.20
2019-04-29T14:27:50.656Z,42.97
2019-04-29T14:32:55.903Z,42.93
2019-04-29T14:38:04.242Z,43.03
2019-04-29T14:43:31.385Z,43.37
2019-04-29T14:48:42.447Z,43.60
2019-04-29T14:53:55.071Z,44.03
2019-04-29T14:58:46.926Z,44.07
2019-04-29T15:03:57.795Z,43.13
2019-04-29T15:09:01.620Z,43.87
2019-04-29T15:14:07.197Z,43.73
2019-04-29T15:19:27.466Z,44.63
2019-04-29T15:24:32.710Z,45.37
2019-04-29T15:29:36.632Z,45.47
2019-04-29T15:34:43.961Z,45.33
2019-04-29T15:39:47.740Z,44.57
2019-04-29T15:44:51.574Z,45.28
2019-04-29T15:50:00.798Z,45.67
2019-04-29T15:55:01.609Z,46.30
2019-04-29T16:00:21.534Z,47.80
2019-04-29T16:05:21.138Z,50.67
2019-04-29T16:10:29.013Z,54.10
2019-04-29T16:15:32.770Z,53.47
2019-04-29T16:20:37.255Z,65.05
2019-04-29T16:25:41.175Z,140.30
2019-04-29T16:30:46.867Z,81.10
2019-04-29T16:35:50.922Z,47.70
2019-04-29T16:40:58.920Z,49.77
2019-04-29T16:46:07.184Z,46.17
2019-04-29T16:51:14.583Z,46.48
2019-04-29T16:56:16.520Z,45.00
2019-04-29T17:01:20.842Z,45.20
2019-04-29T17:06:24.593Z,45.07
2019-04-29T17:11:32.880Z,46.43
2019-04-29T17:16:36.611Z,47.40
2019-04-29T17:21:40.329Z,47.37
2019-04-29T17:26:45.555Z,46.97
2019-04-29T17:32:09.635Z,48.27
2019-04-29T17:37:13.680Z,51.10
2019-04-29T17:42:17.425Z,52.00
2019-04-29T17:47:25.459Z,51.03
2019-04-29T17:52:30.439Z,54.20
2019-04-29T17:57:41.994Z,52.60
2019-04-29T18:03:03.108Z,53.35
2019-04-29T18:08:08.475Z,56.07
2019-04-29T18:13:12.380Z,56.13
2019-04-29T18:18:19.055Z,53.67
2019-04-29T18:23:27.403Z,52.77
2019-04-29T18:28:31.250Z,52.60
2019-04-29T18:33:35.180Z,51.83
2019-04-29T18:38:42.484Z,60.37
2019-04-29T18:43:45.174Z,70.97
2019-04-29T18:48:48.920Z,68.30
2019-04-29T18:53:52.563Z,70.30
2019-04-29T18:58:56.199Z,72.13
2019-04-29T19:04:16.083Z,65.93
2019-04-29T19:09:20.161Z,64.97
2019-04-29T19:14:26.900Z,60.47
2019-04-29T19:19:30.706Z,63.90
2019-04-29T19:24:36.359Z,64.40
2019-04-29T19:29:43.195Z,60.43
2019-04-29T19:34:45.926Z,59.83
2019-04-29T19:39:52.472Z,58.97
2019-04-29T19:44:55.887Z,59.33
2019-04-29T19:49:59.903Z,58.33
2019-04-29T19:55:04.848Z,61.17
2019-04-29T20:00:09.218Z,61.77
2019-04-29T20:05:16.481Z,57.27
2019-04-29T20:10:21.393Z,57.50
2019-04-29T20:15:26.716Z,58.37
2019-04-29T20:20:34.952Z,60.27
2019-04-29T20:30:42.880Z,68.35
2019-04-29T20:35:48.949Z,70.70
2019-04-29T20:40:52.472Z,69.10
2019-04-29T20:45:58.090Z,73.80
2019-04-29T20:51:11.634Z,67.22
2019-04-29T20:56:11.895Z,65.27
2019-04-29T21:01:17.369Z,81.47
2019-04-29T21:06:21.075Z,70.50
2019-04-29T21:11:38.075Z,67.17
2019-04-29T21:16:43.384Z,62.65
2019-04-29T21:21:47.522Z,62.27
2019-04-29T21:26:51.423Z,61.87
2019-04-29T21:31:58.607Z,62.23
2019-04-29T21:37:10.676Z,62.17
2019-04-29T21:42:16.052Z,61.80
2019-04-29T21:47:20.279Z,62.87
2019-04-29T21:52:25.298Z,67.27
2019-04-29T21:57:29.661Z,61.57
2019-04-29T22:02:33.400Z,62.37
2019-04-29T22:07:39.777Z,67.10
2019-04-29T22:12:42.514Z,61.87
2019-04-29T22:17:55.921Z,62.63
2019-04-29T22:22:51.532Z,60.77
2019-04-29T22:27:55.472Z,61.90
2019-04-29T22:32:59.945Z,62.67
2019-04-29T22:38:07.683Z,61.03
2019-04-29T22:43:10.675Z,62.13
2019-04-29T22:48:19.109Z,60.30
2019-04-29T22:53:19.700Z,59.43
2019-04-29T22:58:24.902Z,59.73
2019-04-29T23:03:28.568Z,59.03
2019-04-29T23:08:34.608Z,65.07
2019-04-29T23:13:38.102Z,59.07
2019-04-29T23:18:43.317Z,58.63
2019-04-29T23:23:48.990Z,59.17
2019-04-29T23:28:52.642Z,57.23
2019-04-29T23:33:56.532Z,57.00
2019-04-29T23:39:00.263Z,56.07
2019-04-29T23:44:05.204Z,56.02
2019-04-29T23:49:09.324Z,56.03
2019-04-29T23:54:15.132Z,55.13
2019-04-29T23:59:19.826Z,54.57
